Time;durP1;ratioP1;P1;durP2;ratioP2;P2;SDS_P1;SDS_P2;PMS_P1;PMS_P2;Temp;Humidity;BMP_temperature;BMP_pressure;BME280_temperature;BME280_humidity;BME280_pressure;Samples;Min_cycle;Max_cycle;Signal;HPM_P1;HPM_P2
2021/09/10 00:00:05;;;;;;;;;;;;;;;22.22;29.93;98183.78;4889245;29;1054;-79
2021/09/10 00:02:36;;;;;;;;;;;;;;;22.17;30.12;98172.97;4906746;29;969;-80
2021/09/10 00:05:03;;;;;;;;;;;;;;;22.16;29.82;98175.00;4906547;29;1899;-80
2021/09/10 00:07:29;;;;;;;;;;;;;;;22.25;29.78;98161.00;4907545;29;971;-80
2021/09/10 00:09:54;;;;;;;;;;;;;;;22.28;29.60;98168.63;4906792;29;647;-80
2021/09/10 00:12:20;;;;;;;;;;;;;;;22.27;29.73;98164.19;4907572;29;723;-80
2021/09/10 00:14:45;;;;;;;;;;;;;;;22.40;29.64;98160.63;4907426;29;663;-80
2021/09/10 00:17:10;;;;;;;;;;;;;;;22.14;30.26;98163.34;4907104;29;1031;-80
2021/09/10 00:19:36;;;;;;;;;;;;;;;22.19;30.08;98176.97;4906059;29;860;-80
2021/09/10 00:22:01;;;;;;;;;;;;;;;22.04;30.03;98172.88;4906113;29;1032;-80
2021/09/10 00:24:27;;;;;;;;;;;;;;;22.34;29.65;98168.88;4907292;29;1898;-80
2021/09/10 00:26:53;;;;;;;;;;;;;;;22.20;30.22;98172.88;4906196;29;899;-80
2021/09/10 00:29:18;;;;;;;;;;;;;;;22.27;29.75;98175.53;4891157;29;1191;-80
2021/09/10 00:31:44;;;;;;;;;;;;;;;22.17;30.17;98182.25;4905896;29;1005;-80
2021/09/10 00:34:09;;;;;;;;;;;;;;;22.27;29.84;98175.53;4906882;29;902;-80
2021/09/10 00:36:35;;;;;;;;;;;;;;;22.24;29.97;98176.44;4906940;29;950;-80
2021/09/10 00:39:00;;;;;;;;;;;;;;;22.09;30.24;98181.63;4906289;29;794;-80
2021/09/10 00:41:25;;;;;;;;;;;;;;;22.22;30.00;98187.41;4906204;29;1156;-80
2021/09/10 00:43:51;;;;;;;;;;;;;;;22.18;30.03;98181.03;4905680;29;1903;-80
2021/09/10 00:46:16;;;;;;;;;;;;;;;22.11;30.00;98184.03;4906811;29;974;-80
2021/09/10 00:48:42;;;;;;;;;;;;;;;22.23;29.79;98180.50;4905880;29;942;-80
2021/09/10 00:51:08;;;;;;;;;;;;;;;22.30;29.92;98174.63;4906361;29;1011;-80
2021/09/10 00:53:33;;;;;;;;;;;;;;;22.02;30.27;98164.81;4906004;29;660;-80
2021/09/10 00:55:59;;;;;;;;;;;;;;;22.27;30.01;98175.53;4906234;29;1442;-80
2021/09/10 00:58:24;;;;;;;;;;;;;;;22.29;29.83;98172.25;4905985;29;703;-81
2021/09/10 01:00:50;;;;;;;;;;;;;;;22.38;29.90;98163.09;4905231;29;994;-80
2021/09/10 01:03:16;;;;;;;;;;;;;;;22.29;29.90;98175.09;4905503;29;995;-80
2021/09/10 01:05:42;;;;;;;;;;;;;;;22.25;29.95;98172.34;4905876;29;1969;-80
2021/09/10 01:08:07;;;;;;;;;;;;;;;22.23;29.99;98174.84;4905663;29;763;-80
2021/09/10 01:10:33;;;;;;;;;;;;;;;22.20;30.09;98172.88;4905351;29;679;-80
2021/09/10 01:12:58;;;;;;;;;;;;;;;21.94;30.31;98159.78;4906475;29;669;-80
2021/09/10 01:15:24;;;;;;;;;;;;;;;21.99;30.62;98170.56;4905390;29;873;-80
2021/09/10 01:17:49;;;;;;;;;;;;;;;22.16;30.06;98174.22;4906055;29;892;-80
2021/09/10 01:20:15;;;;;;;;;;;;;;;22.08;29.96;98170.75;4905673;29;945;-80
2021/09/10 01:22:43;;;;;;;;;;;;;;;22.15;29.93;98172.63;4905671;29;495;-80
2021/09/10 01:25:12;;;;;;;;;;;;;;;22.25;29.88;98172.34;4905699;29;1903;-80
2021/09/10 01:27:38;;;;;;;;;;;;;;;22.19;29.98;98176.97;4906078;29;607;-80
2021/09/10 01:30:04;;;;;;;;;;;;;;;22.30;29.74;98180.31;4905733;29;1044;-80
2021/09/10 01:32:30;;;;;;;;;;;;;;;22.12;29.86;98179.16;4905237;29;947;-80
2021/09/10 01:34:55;;;;;;;;;;;;;;;22.09;30.15;98180.84;4905185;29;945;-80
2021/09/10 01:37:20;;;;;;;;;;;;;;;22.15;29.98;98179.09;4905171;29;669;-80
2021/09/10 01:39:46;;;;;;;;;;;;;;;22.16;29.78;98177.84;4906021;29;729;-80
2021/09/10 01:42:11;;;;;;;;;;;;;;;22.10;29.75;98176.75;4904932;29;1018;-80
2021/09/10 01:44:37;;;;;;;;;;;;;;;22.10;29.99;98168.25;4905304;29;1961;-80
2021/09/10 01:47:02;;;;;;;;;;;;;;;22.04;29.79;98167.22;4905463;29;842;-80
2021/09/10 01:49:28;;;;;;;;;;;;;;;21.95;30.09;98165.00;4904976;29;1010;-80
2021/09/10 01:51:53;;;;;;;;;;;;;;;21.97;30.23;98168.19;4904968;29;797;-80
2021/09/10 01:54:19;;;;;;;;;;;;;;;22.03;29.99;98165.63;4905637;29;596;-80
2021/09/10 01:56:44;;;;;;;;;;;;;;;22.06;29.91;98164.72;4904966;29;648;-80
2021/09/10 01:59:10;;;;;;;;;;;;;;;22.17;29.71;98165.25;4905227;29;1101;-80
2021/09/10 02:01:35;;;;;;;;;;;;;;;22.01;30.13;98162.41;4905214;29;891;-80
2021/09/10 02:04:01;;;;;;;;;;;;;;;22.16;30.04;98163.66;4889115;29;1899;-80
2021/09/10 02:06:26;;;;;;;;;;;;;;;22.12;30.00;98162.16;4904836;29;635;-80
2021/09/10 02:08:52;;;;;;;;;;;;;;;22.18;29.77;98161.22;4905301;29;668;-80
2021/09/10 02:11:17;;;;;;;;;;;;;;;22.19;29.70;98167.66;4904723;29;715;-80
2021/09/10 02:13:43;;;;;;;;;;;;;;;22.16;29.75;98160.84;4905132;29;1074;-80
2021/09/10 02:16:09;;;;;;;;;;;;;;;22.07;30.01;98160.63;4904947;29;850;-81
2021/09/10 02:18:34;;;;;;;;;;;;;;;22.10;30.00;98154.09;4904453;29;857;-80
2021/09/10 02:21:00;;;;;;;;;;;;;;;22.08;30.04;98150.91;4904146;29;899;-80
2021/09/10 02:23:25;;;;;;;;;;;;;;;22.04;30.36;98141.72;4903729;29;1907;-80
2021/09/10 02:25:51;;;;;;;;;;;;;;;22.07;30.14;98135.13;4905040;29;632;-80
2021/09/10 02:28:16;;;;;;;;;;;;;;;22.21;29.93;98126.28;4904246;29;958;-80
2021/09/10 02:30:42;;;;;;;;;;;;;;;22.11;30.16;98127.38;4904798;29;923;-80
2021/09/10 02:33:07;;;;;;;;;;;;;;;22.06;30.50;98133.53;4904257;29;880;-80
2021/09/10 02:35:32;;;;;;;;;;;;;;;22.04;30.17;98128.34;4904890;29;658;-80
2021/09/10 02:37:58;;;;;;;;;;;;;;;22.05;30.21;98132.75;4905146;29;638;-80
2021/09/10 02:40:23;;;;;;;;;;;;;;;22.13;30.02;98124.91;4904234;29;736;-80
2021/09/10 02:42:49;;;;;;;;;;;;;;;22.03;30.45;98138.09;4904807;29;1006;-80
2021/09/10 02:45:14;;;;;;;;;;;;;;;22.08;30.28;98134.72;4904542;29;1910;-80
2021/09/10 02:47:40;;;;;;;;;;;;;;;22.10;30.23;98137.09;4904212;29;1020;-80
2021/09/10 02:50:05;;;;;;;;;;;;;;;22.05;30.46;98135.59;4904174;29;719;-80
2021/09/10 02:52:33;;;;;;;;;;;;;;;22.07;30.52;98132.31;4905019;29;657;-80
2021/09/10 02:54:59;;;;;;;;;;;;;;;22.12;30.16;98133.84;4888642;29;790;-81
2021/09/10 02:57:25;;;;;;;;;;;;;;;22.07;30.58;98140.81;4904513;29;891;-80
2021/09/10 02:59:51;;;;;;;;;;;;;;;22.08;30.48;98133.91;4903861;29;924;-81
2021/09/10 03:02:18;;;;;;;;;;;;;;;22.15;30.16;98138.63;4904500;29;1046;-80
2021/09/10 03:04:47;;;;;;;;;;;;;;;22.04;30.51;98127.53;4903712;29;1902;-80
2021/09/10 03:07:13;;;;;;;;;;;;;;;22.19;30.11;98133.66;4911346;29;1169;-80
2021/09/10 03:09:38;;;;;;;;;;;;;;;22.13;30.01;98135.44;4912984;29;1190;-80
2021/09/10 03:12:04;;;;;;;;;;;;;;;22.16;30.27;98141.00;4907449;29;1231;-80
2021/09/10 03:14:35;;;;;;;;;;;;;;;22.07;30.17;98132.31;4914284;29;1363;-80
2021/09/10 03:17:00;;;;;;;;;;;;;;;22.06;30.18;98130.72;4913235;29;1198;-80
2021/09/10 03:19:26;;;;;;;;;;;;;;;22.17;30.21;98124.78;4911874;29;1387;-81
2021/09/10 03:21:52;;;;;;;;;;;;;;;22.19;29.92;98125.16;4914192;29;1149;-80
2021/09/10 03:24:18;;;;;;;;;;;;;;;22.27;29.98;98116.00;4904314;29;1978;-79
2021/09/10 03:26:52;;;;;;;;;;;;;;;22.09;30.09;98121.34;4895237;29;1268;-80
2021/09/10 03:29:18;;;;;;;;;;;;;;;22.10;30.09;98111.59;4909886;29;1110;-79
2021/09/10 03:31:44;;;;;;;;;;;;;;;21.96;30.30;98115.59;4913756;29;1281;-80
2021/09/10 03:34:09;;;;;;;;;;;;;;;22.16;30.38;98120.38;4914579;29;1082;-80
2021/09/10 03:36:35;;;;;;;;;;;;;;;22.06;30.21;98119.38;4916826;29;1241;-80
2021/09/10 03:39:00;;;;;;;;;;;;;;;22.05;30.43;98117.78;4907185;29;1174;-79
2021/09/10 03:41:26;;;;;;;;;;;;;;;22.14;30.02;98125.69;4907807;29;998;-80
2021/09/10 03:43:54;;;;;;;;;;;;;;;22.27;30.08;98127.31;4906949;29;1962;-80
2021/09/10 03:46:20;;;;;;;;;;;;;;;22.05;30.10;98120.63;4906672;29;1075;-79
2021/09/10 03:48:46;;;;;;;;;;;;;;;21.96;30.37;98126.13;4906904;29;1695;-80
2021/09/10 03:51:11;;;;;;;;;;;;;;;22.07;30.25;98129.47;4924314;29;1178;-80
2021/09/10 03:53:37;;;;;;;;;;;;;;;22.01;30.08;98117.09;4909657;29;841;-81
2021/09/10 03:56:03;;;;;;;;;;;;;;;22.05;30.16;98120.63;4925044;29;885;-80
2021/09/10 03:58:28;;;;;;;;;;;;;;;22.07;30.24;98126.63;4925797;29;937;-80
2021/09/10 04:00:54;;;;;;;;;;;;;;;22.18;30.05;98132.88;4925969;29;951;-80
2021/09/10 04:03:21;;;;;;;;;;;;;;;22.16;29.85;98135.34;4925855;29;685;-81
2021/09/10 04:05:47;;;;;;;;;;;;;;;22.34;29.55;98135.66;4926520;29;1973;-80
2021/09/10 04:08:12;;;;;;;;;;;;;;;22.34;29.67;98130.00;4924925;29;905;-81
2021/09/10 04:10:39;;;;;;;;;;;;;;;22.15;30.04;98133.75;4926161;29;864;-80
2021/09/10 04:13:04;;;;;;;;;;;;;;;22.27;29.48;98135.84;4926365;29;871;-80
2021/09/10 04:15:30;;;;;;;;;;;;;;;22.22;29.61;98135.59;4925674;29;629;-80
2021/09/10 04:17:55;;;;;;;;;;;;;;;22.06;29.91;98137.19;4926379;29;680;-80
2021/09/10 04:20:21;;;;;;;;;;;;;;;22.25;29.72;98132.66;4926251;29;672;-80
2021/09/10 04:22:46;;;;;;;;;;;;;;;22.07;30.22;98126.63;4925387;29;940;-80
2021/09/10 04:25:12;;;;;;;;;;;;;;;22.32;29.86;98128.81;4925758;29;1902;-80
2021/09/10 04:27:37;;;;;;;;;;;;;;;22.15;30.20;98128.06;4925586;29;969;-80
2021/09/10 04:30:04;;;;;;;;;;;;;;;22.11;30.11;98127.38;4925370;29;624;-79
2021/09/10 04:32:38;;;;;;;;;;;;;;;22.13;29.92;98129.78;4926114;29;695;-80
2021/09/10 04:35:14;;;;;;;;;;;;;;;22.24;30.01;98131.06;4925425;29;715;-80
2021/09/10 04:37:39;;;;;;;;;;;;;;;22.31;29.65;98133.69;4925758;29;1111;-80
2021/09/10 04:40:05;;;;;;;;;;;;;;;22.10;30.02;98137.91;4924222;29;862;-80
2021/09/10 04:42:30;;;;;;;;;;;;;;;22.15;29.72;98130.13;4924868;29;1347;-80
2021/09/10 04:44:56;;;;;;;;;;;;;;;22.31;29.60;98130.06;4924940;29;1982;-79
2021/09/10 04:47:21;;;;;;;;;;;;;;;22.27;29.47;98118.03;4925609;29;695;-80
2021/09/10 04:49:47;;;;;;;;;;;;;;;22.33;29.44;98121.94;4924922;29;660;-80
2021/09/10 04:52:12;;;;;;;;;;;;;;;22.23;29.70;98126.66;4903394;29;1115;-80
2021/09/10 04:54:38;;;;;;;;;;;;;;;22.27;29.91;98129.38;4914399;29;1185;-80
2021/09/10 04:57:03;;;;;;;;;;;;;;;22.12;30.03;98134.63;4905481;29;1336;-79
2021/09/10 04:59:29;;;;;;;;;;;;;;;22.21;29.69;98134.00;4905455;29;1297;-80
2021/09/10 05:01:55;;;;;;;;;;;;;;;22.28;29.59;98137.44;4915866;29;1241;-81
2021/09/10 05:04:23;;;;;;;;;;;;;;;22.12;29.94;98128.97;4913977;29;1982;-80
2021/09/10 05:06:49;;;;;;;;;;;;;;;22.17;29.92;98131.25;4907301;29;1118;-80
2021/09/10 05:09:14;;;;;;;;;;;;;;;22.32;29.58;98123.94;4905324;29;1236;-81
2021/09/10 05:11:40;;;;;;;;;;;;;;;22.18;30.13;98129.25;4890296;29;969;-80
2021/09/10 05:14:06;;;;;;;;;;;;;;;22.05;30.18;98129.91;4905761;29;599;-80
2021/09/10 05:16:31;;;;;;;;;;;;;;;22.00;30.15;98126.84;4906353;29;670;-80
2021/09/10 05:18:57;;;;;;;;;;;;;;;22.09;30.04;98116.47;4905762;29;660;-80
2021/09/10 05:21:22;;;;;;;;;;;;;;;22.20;29.70;98141.72;4905307;29;1063;-80
2021/09/10 05:23:48;;;;;;;;;;;;;;;22.18;29.77;98144.19;4905166;29;1907;-80
2021/09/10 05:26:13;;;;;;;;;;;;;;;22.24;29.63;98138.78;4905566;29;994;-80
2021/09/10 05:28:39;;;;;;;;;;;;;;;22.19;29.87;98131.63;4906118;29;604;-80
2021/09/10 05:31:04;;;;;;;;;;;;;;;22.13;30.10;98135.44;4905378;29;715;-80
2021/09/10 05:33:30;;;;;;;;;;;;;;;22.13;29.63;98141.91;4905549;29;679;-80
2021/09/10 05:35:55;;;;;;;;;;;;;;;22.21;29.70;98148.97;4905409;29;691;-80
2021/09/10 05:38:20;;;;;;;;;;;;;;;22.24;29.78;98145.25;4905718;29;912;-80
2021/09/10 05:40:46;;;;;;;;;;;;;;;22.04;29.89;98139.66;4905738;29;968;-80
2021/09/10 05:43:11;;;;;;;;;;;;;;;22.24;29.78;98136.75;4904348;29;1193;-80
2021/09/10 05:45:38;;;;;;;;;;;;;;;22.20;29.89;98140.91;4905171;29;1907;-80
2021/09/10 05:48:04;;;;;;;;;;;;;;;22.12;29.78;98140.28;4905088;29;578;-80
2021/09/10 05:50:29;;;;;;;;;;;;;;;22.00;29.99;98138.16;4905171;29;703;-80
2021/09/10 05:52:55;;;;;;;;;;;;;;;22.10;30.06;98137.91;4904662;29;940;-80
2021/09/10 05:55:20;;;;;;;;;;;;;;;22.25;29.41;98140.38;4905426;29;893;-80
2021/09/10 05:57:45;;;;;;;;;;;;;;;22.12;29.49;98140.28;4905577;29;947;-79
2021/09/10 06:00:12;;;;;;;;;;;;;;;22.08;29.66;98145.25;4905026;29;712;-80
2021/09/10 06:02:38;;;;;;;;;;;;;;;22.11;29.73;98161.38;4889350;29;701;-80
2021/09/10 06:05:04;;;;;;;;;;;;;;;21.88;30.09;98164.38;4905411;29;1970;-80
2021/09/10 06:07:31;;;;;;;;;;;;;;;21.96;30.05;98160.91;4904549;29;967;-80
2021/09/10 06:09:57;;;;;;;;;;;;;;;21.97;29.74;98167.41;4904376;29;873;-80
2021/09/10 06:12:23;;;;;;;;;;;;;;;22.15;29.52;98159.25;4904697;29;796;-80
2021/09/10 06:14:49;;;;;;;;;;;;;;;22.17;29.63;98159.59;4905286;29;652;-80
2021/09/10 06:17:14;;;;;;;;;;;;;;;22.22;29.51;98166.75;4904740;29;793;-80
2021/09/10 06:19:39;;;;;;;;;;;;;;;22.17;29.31;98168.09;4904543;29;664;-80
2021/09/10 06:22:05;;;;;;;;;;;;;;;22.26;29.54;98161.81;4904881;29;995;-81
2021/09/10 06:24:30;;;;;;;;;;;;;;;22.28;29.49;98159.34;4904903;29;1911;-80
2021/09/10 06:26:57;;;;;;;;;;;;;;;22.17;29.38;98170.13;4905387;29;1066;-80
2021/09/10 06:29:23;;;;;;;;;;;;;;;21.99;30.02;98159.25;4905140;29;662;-80
2021/09/10 06:31:50;;;;;;;;;;;;;;;21.96;29.88;98162.94;4905391;29;675;-80
2021/09/10 06:34:18;;;;;;;;;;;;;;;22.16;29.65;98169.34;4904480;29;749;-80
2021/09/10 06:36:44;;;;;;;;;;;;;;;22.21;29.35;98171.63;4889015;29;695;-80
2021/09/10 06:39:10;;;;;;;;;;;;;;;22.02;29.76;98158.34;4904032;29;1070;-80
2021/09/10 06:41:35;;;;;;;;;;;;;;;21.99;29.77;98164.91;4904587;29;967;-79
2021/09/10 06:44:00;;;;;;;;;;;;;;;21.98;29.77;98180.31;4904910;29;1907;-80
2021/09/10 06:46:26;;;;;;;;;;;;;;;22.01;29.67;98185.09;4904304;29;696;-80
2021/09/10 06:48:51;;;;;;;;;;;;;;;22.05;29.65;98182.97;4904069;29;824;-80
2021/09/10 06:51:17;;;;;;;;;;;;;;;21.99;29.92;98181.91;4904955;29;654;-80
2021/09/10 06:53:42;;;;;;;;;;;;;;;22.04;29.91;98184.22;4904742;29;716;-80
2021/09/10 06:56:08;;;;;;;;;;;;;;;22.06;29.58;98178.88;4903895;29;796;-80
2021/09/10 06:58:33;;;;;;;;;;;;;;;22.08;29.76;98184.91;4903480;29;1128;-80
2021/09/10 07:00:59;;;;;;;;;;;;;;;22.02;29.85;98190.34;4904516;29;885;-80
2021/09/10 07:03:24;;;;;;;;;;;;;;;22.06;29.52;98187.38;4905001;29;916;-80
2021/09/10 07:05:50;;;;;;;;;;;;;;;22.13;29.83;98189.28;4904675;29;1903;-81
2021/09/10 07:08:15;;;;;;;;;;;;;;;22.14;29.67;98183.16;4905592;29;653;-80
2021/09/10 07:10:41;;;;;;;;;;;;;;;22.17;29.48;98187.94;4907617;29;792;-80
2021/09/10 07:13:06;;;;;;;;;;;;;;;22.03;29.93;98188.28;4908198;29;944;-80
2021/09/10 07:15:32;;;;;;;;;;;;;;;22.03;29.80;98193.97;4907560;29;1191;-80
2021/09/10 07:17:57;;;;;;;;;;;;;;;22.13;29.61;98192.13;4908638;29;914;-80
2021/09/10 07:20:22;;;;;;;;;;;;;;;22.12;29.92;98193.34;4908326;29;727;-80
2021/09/10 07:22:48;;;;;;;;;;;;;;;22.12;29.95;98185.63;4907888;29;707;-79
2021/09/10 07:25:13;;;;;;;;;;;;;;;22.11;29.74;98198.22;4908171;29;1902;-80
2021/09/10 07:27:39;;;;;;;;;;;;;;;22.00;30.18;98198.47;4907777;29;974;-79
2021/09/10 07:30:05;;;;;;;;;;;;;;;22.13;29.92;98192.91;4907220;29;1201;-79
2021/09/10 07:32:30;;;;;;;;;;;;;;;22.18;29.47;98200.88;4907845;29;920;-79
2021/09/10 07:34:56;;;;;;;;;;;;;;;22.01;29.79;98190.75;4907410;29;680;-80
2021/09/10 07:37:27;;;;;;;;;;;;;;;22.05;30.09;98191.47;4907684;29;699;-79
2021/09/10 07:39:53;;;;;;;;;;;;;;;22.08;29.84;98197.06;4907451;29;633;-80
2021/09/10 07:42:20;;;;;;;;;;;;;;;22.08;29.80;98196.25;4905670;29;1212;-80
2021/09/10 07:44:46;;;;;;;;;;;;;;;22.17;29.64;98199.28;4896718;29;1903;-79
2021/09/10 07:47:11;;;;;;;;;;;;;;;22.09;29.64;98206.34;4890744;29;1256;-80
2021/09/10 07:49:37;;;;;;;;;;;;;;;22.11;29.92;98195.38;4912095;29;1171;-79
2021/09/10 07:52:03;;;;;;;;;;;;;;;22.16;29.79;98196.88;4915224;29;1236;-79
2021/09/10 07:54:28;;;;;;;;;;;;;;;22.27;29.70;98203.06;4890360;29;1296;-80
2021/09/10 07:56:54;;;;;;;;;;;;;;;22.09;29.57;98198.63;4911924;29;1224;-80
2021/09/10 07:59:19;;;;;;;;;;;;;;;21.97;30.08;98192.91;4914829;29;1208;-80
2021/09/10 08:01:45;;;;;;;;;;;;;;;22.05;30.01;98197.13;4915852;29;1188;-80
2021/09/10 08:04:10;;;;;;;;;;;;;;;22.17;29.51;98196.44;4906449;29;1961;-79
2021/09/10 08:06:37;;;;;;;;;;;;;;;22.16;29.80;98203.34;4905989;29;1284;-80
2021/09/10 08:09:03;;;;;;;;;;;;;;;22.09;29.57;98204.31;4915480;29;1271;-79
2021/09/10 08:11:30;;;;;;;;;;;;;;;22.26;29.49;98201.47;4914449;29;1182;-80
2021/09/10 08:14:11;;;;;;;;;;;;;;;22.22;29.48;98200.78;4898216;29;1321;-79
2021/09/10 08:16:36;;;;;;;;;;;;;;;21.94;30.00;98199.44;4906411;29;1264;-79
2021/09/10 08:19:03;;;;;;;;;;;;;;;21.96;30.03;98199.78;4914457;29;1233;-79
2021/09/10 08:21:28;;;;;;;;;;;;;;;21.98;30.18;98198.13;4913150;29;1252;-80
2021/09/10 08:23:54;;;;;;;;;;;;;;;22.10;29.64;98190.94;4916293;29;1946;-80
2021/09/10 08:26:20;;;;;;;;;;;;;;;22.15;29.73;98189.63;4911117;29;1193;-78
2021/09/10 08:28:46;;;;;;;;;;;;;;;22.10;29.93;98188.91;4912619;29;1181;-79
2021/09/10 08:31:12;;;;;;;;;;;;;;;22.15;29.61;98189.63;4889735;29;1205;-79
2021/09/10 08:33:38;;;;;;;;;;;;;;;22.20;29.90;98187.06;4915088;29;1198;-80
2021/09/10 08:36:04;;;;;;;;;;;;;;;22.23;29.74;98189.00;4914452;29;1173;-79
2021/09/10 08:38:29;;;;;;;;;;;;;;;22.07;29.88;98188.97;4916404;29;1236;-80
2021/09/10 08:40:56;;;;;;;;;;;;;;;21.94;30.03;98188.09;4908171;29;1118;-80
2021/09/10 08:43:21;;;;;;;;;;;;;;;21.89;30.31;98185.81;4911224;29;1188;-80
2021/09/10 08:45:47;;;;;;;;;;;;;;;21.94;29.95;98179.59;4906129;29;1911;-80
2021/09/10 08:48:12;;;;;;;;;;;;;;;21.94;30.02;98176.78;4906141;29;1457;-79
2021/09/10 08:50:38;;;;;;;;;;;;;;;22.02;30.14;98181.00;4906973;29;638;-78
2021/09/10 08:53:03;;;;;;;;;;;;;;;22.04;29.78;98178.53;4906859;29;715;-80
2021/09/10 08:55:29;;;;;;;;;;;;;;;22.09;29.74;98175.19;4905871;29;1056;-80
2021/09/10 08:58:06;;;;;;;;;;;;;;;22.04;30.03;98175.72;4906383;29;927;-80
2021/09/10 09:00:32;;;;;;;;;;;;;;;22.18;29.49;98172.53;4906694;29;1049;-80
2021/09/10 09:03:07;;;;;;;;;;;;;;;22.18;29.84;98178.22;4906276;29;668;-80
2021/09/10 09:05:32;;;;;;;;;;;;;;;22.12;29.94;98179.97;4906617;29;1898;-80
2021/09/10 09:08:13;;;;;;;;;;;;;;;22.26;29.36;98173.94;4906516;29;664;-80
2021/09/10 09:10:49;;;;;;;;;;;;;;;22.06;30.02;98159.06;4905016;29;916;-78
2021/09/10 09:13:15;;;;;;;;;;;;;;;22.04;30.06;98162.34;4905484;29;872;-80
2021/09/10 09:15:40;;;;;;;;;;;;;;;22.17;29.74;98170.13;4906402;29;667;-80
2021/09/10 09:18:05;;;;;;;;;;;;;;;22.11;29.97;98164.22;4904572;29;828;-80
2021/09/10 09:20:31;;;;;;;;;;;;;;;22.28;29.77;98156.50;4906392;29;647;-78
2021/09/10 09:23:00;;;;;;;;;;;;;;;22.15;29.60;98158.47;4906287;29;661;-80
2021/09/10 09:25:26;;;;;;;;;;;;;;;22.22;29.51;98150.53;4905230;29;1883;-80
2021/09/10 09:27:52;;;;;;;;;;;;;;;20.47;29.65;97890.91;4905883;29;1017;-79
2021/09/10 09:30:37;;;;;;;;;;;;;;;22.21;29.93;98142.50;4905739;29;952;-81
2021/09/10 09:33:03;;;;;;;;;;;;;;;22.38;29.59;98146.88;4905590;29;1008;-80
2021/09/10 09:35:30;;;;;;;;;;;;;;;22.17;29.57;98142.59;4906165;29;710;-80
2021/09/10 09:37:56;;;;;;;;;;;;;;;22.15;29.72;98139.41;4904831;29;921;-80
2021/09/10 09:40:29;;;;;;;;;;;;;;;22.14;29.85;98149.16;4904587;29;884;-80
2021/09/10 09:42:54;;;;;;;;;;;;;;;22.08;29.87;98153.75;4904601;29;1483;-80
2021/09/10 09:45:26;;;;;;;;;;;;;;;22.12;29.90;98160.13;4905242;29;1915;-80
2021/09/10 09:47:52;;;;;;;;;;;;;;;22.11;30.00;98150.03;4905899;29;675;-79
2021/09/10 09:50:18;;;;;;;;;;;;;;;22.01;30.23;98146.22;4905773;29;699;-80
2021/09/10 09:52:45;;;;;;;;;;;;;;;22.06;30.10;98142.03;4905150;29;593;-80
2021/09/10 09:55:12;;;;;;;;;;;;;;;22.04;30.09;98136.03;4909693;29;1094;-79
2021/09/10 09:57:41;;;;;;;;;;;;;;;22.06;30.12;98154.19;4905736;29;844;-79
2021/09/10 10:00:07;;;;;;;;;;;;;;;22.10;30.01;98151.25;4904800;29;1036;-80
2021/09/10 10:02:39;;;;;;;;;;;;;;;22.12;30.15;98134.63;4903981;29;1217;-80
2021/09/10 10:05:04;;;;;;;;;;;;;;;22.17;29.95;98142.59;4904344;29;1986;-80
2021/09/10 10:07:50;;;;;;;;;;;;;;;22.12;30.15;98137.47;4905587;29;1039;-79
2021/09/10 10:10:17;;;;;;;;;;;;;;;22.07;29.82;98133.13;4904860;29;1059;-79
2021/09/10 10:12:43;;;;;;;;;;;;;;;21.93;30.48;98132.69;4904415;29;935;-80
2021/09/10 10:15:19;;;;;;;;;;;;;;;22.14;30.05;98125.69;4919573;29;1468;-80
2021/09/10 10:17:44;;;;;;;;;;;;;;;22.02;30.14;98130.00;4909509;29;1187;-80
2021/09/10 10:20:12;;;;;;;;;;;;;;;22.14;29.62;98123.66;4903370;29;1213;-80
2021/09/10 10:22:42;;;;;;;;;;;;;;;22.09;29.70;98129.84;4903397;29;1221;-79
2021/09/10 10:25:10;;;;;;;;;;;;;;;22.00;30.15;98121.16;4903675;29;1979;-79
2021/09/10 10:27:39;;;;;;;;;;;;;;;22.09;30.03;98127.78;4888768;29;1262;-80
2021/09/10 10:30:06;;;;;;;;;;;;;;;22.08;30.01;98122.56;4905022;29;963;-80
2021/09/10 10:32:32;;;;;;;;;;;;;;;22.25;29.67;98129.81;4904434;29;636;-80
2021/09/10 10:35:14;;;;;;;;;;;;;;;22.18;29.79;98127.19;4904422;29;691;-80
2021/09/10 10:37:42;;;;;;;;;;;;;;;22.39;29.37;98125.81;4904403;29;750;-80
2021/09/10 10:40:23;;;;;;;;;;;;;;;22.19;29.69;98117.44;4904013;29;992;-80
2021/09/10 10:42:50;;;;;;;;;;;;;;;22.12;29.75;98116.81;4903936;29;1040;-80
2021/09/10 10:45:15;;;;;;;;;;;;;;;22.03;29.91;98121.09;4904427;29;1919;-80
2021/09/10 10:47:41;;;;;;;;;;;;;;;22.09;29.73;98121.34;4904515;29;660;-80
2021/09/10 10:50:25;;;;;;;;;;;;;;;22.21;29.56;98119.81;4904894;29;636;-80
2021/09/10 10:52:54;;;;;;;;;;;;;;;22.03;29.37;98121.09;4905096;29;660;-80
2021/09/10 10:55:30;;;;;;;;;;;;;;;22.19;29.56;98122.31;4903895;29;1002;-80
2021/09/10 10:58:15;;;;;;;;;;;;;;;22.18;29.81;98127.19;4904029;29;967;-80
2021/09/10 11:00:51;;;;;;;;;;;;;;;22.34;29.39;98124.31;4904828;29;1164;-80
2021/09/10 11:03:17;;;;;;;;;;;;;;;22.25;29.48;98121.31;4905063;29;612;-80
2021/09/10 11:05:46;;;;;;;;;;;;;;;22.12;29.61;98106.28;4904828;29;1898;-80
2021/09/10 11:08:11;;;;;;;;;;;;;;;22.17;29.47;98119.91;4903737;29;1105;-81
2021/09/10 11:10:37;;;;;;;;;;;;;;;22.12;29.48;98117.63;4903908;29;932;-80
2021/09/10 11:13:02;;;;;;;;;;;;;;;22.16;29.67;98126.81;4904763;29;955;-80
2021/09/10 11:15:29;;;;;;;;;;;;;;;22.08;29.83;98117.72;4904751;29;669;-80
2021/09/10 11:17:56;;;;;;;;;;;;;;;22.18;29.69;98127.19;4904023;29;718;-80
2021/09/10 11:20:37;;;;;;;;;;;;;;;22.15;29.53;98122.41;4888373;29;873;-80
2021/09/10 11:23:03;;;;;;;;;;;;;;;22.07;29.77;98126.63;4904595;29;1046;-80
2021/09/10 11:25:28;;;;;;;;;;;;;;;22.05;29.74;98117.78;4903598;29;1883;-80
2021/09/10 11:27:54;;;;;;;;;;;;;;;22.20;29.52;98116.19;4905153;29;753;-80
2021/09/10 11:30:19;;;;;;;;;;;;;;;22.17;29.59;98119.13;4904859;29;737;-80
2021/09/10 11:32:45;;;;;;;;;;;;;;;22.25;29.31;98112.81;4903959;29;660;-80
2021/09/10 11:35:16;;;;;;;;;;;;;;;22.17;29.66;98107.78;4903650;29;1072;-80
2021/09/10 11:37:50;;;;;;;;;;;;;;;22.08;29.58;98103.53;4904338;29;896;-80
2021/09/10 11:40:15;;;;;;;;;;;;;;;22.11;29.47;98096.19;4903981;29;1096;-80
2021/09/10 11:42:42;;;;;;;;;;;;;;;22.13;29.43;98095.78;4904344;29;1007;-80
2021/09/10 11:45:14;;;;;;;;;;;;;;;22.13;29.54;98096.56;4904342;29;1981;-80
2021/09/10 11:47:40;;;;;;;;;;;;;;;22.07;29.47;98086.97;4904402;29;690;-80
2021/09/10 11:50:13;;;;;;;;;;;;;;;22.14;29.67;98098.16;4903511;29;1054;-80
2021/09/10 11:52:40;;;;;;;;;;;;;;;22.07;29.58;98093.44;4903698;29;829;-80
2021/09/10 11:55:08;;;;;;;;;;;;;;;22.12;29.59;98092.13;4905666;29;656;-80
2021/09/10 11:57:34;;;;;;;;;;;;;;;22.08;29.58;98089.38;4907192;29;645;-80
2021/09/10 12:00:01;;;;;;;;;;;;;;;22.19;29.47;98094.78;4907186;29;613;-80
2021/09/10 12:02:27;;;;;;;;;;;;;;;22.23;29.51;98094.69;4907164;29;642;-80
2021/09/10 12:04:54;;;;;;;;;;;;;;;22.03;29.56;98083.44;4891164;29;1895;-80
2021/09/10 12:07:26;;;;;;;;;;;;;;;22.10;29.64;98091.75;4906673;29;1016;-80
2021/09/10 12:09:52;;;;;;;;;;;;;;;22.24;29.42;98093.44;4906864;29;1041;-80
2021/09/10 12:12:19;;;;;;;;;;;;;;;21.99;29.53;98085.56;4907050;29;648;-80
2021/09/10 12:14:47;;;;;;;;;;;;;;;22.22;29.42;98091.03;4891784;29;663;-80
2021/09/10 12:17:14;;;;;;;;;;;;;;;22.23;29.35;98084.13;4906839;29;692;-80
2021/09/10 12:19:52;;;;;;;;;;;;;;;22.20;29.38;98082.19;4907199;29;1101;-80
2021/09/10 12:22:35;;;;;;;;;;;;;;;22.03;29.75;98080.63;4907159;29;973;-79
2021/09/10 12:25:18;;;;;;;;;;;;;;;22.21;29.10;98080.94;4907286;29;1927;-80
2021/09/10 12:27:43;;;;;;;;;;;;;;;22.15;29.33;98071.41;4907054;29;592;-79
2021/09/10 12:30:10;;;;;;;;;;;;;;;22.12;29.32;98077.94;4891071;29;950;-80
2021/09/10 12:32:37;;;;;;;;;;;;;;;21.99;29.52;98082.75;4875124;29;866;-80
2021/09/10 12:35:04;;;;;;;;;;;;;;;22.05;29.45;98072.44;4906080;29;909;-80
2021/09/10 12:37:30;;;;;;;;;;;;;;;22.16;29.47;98092.81;4906263;29;891;-80
2021/09/10 12:39:56;;;;;;;;;;;;;;;22.21;29.38;98075.28;4890713;29;872;-80
2021/09/10 12:42:22;;;;;;;;;;;;;;;22.24;29.10;98082.91;4890765;29;1234;-80
2021/09/10 12:44:49;;;;;;;;;;;;;;;22.30;29.19;98081.09;4907014;29;1895;-80
2021/09/10 12:47:14;;;;;;;;;;;;;;;22.22;29.44;98081.72;4906283;29;699;-80
2021/09/10 12:49:43;;;;;;;;;;;;;;;22.25;29.21;98078.81;4906960;29;683;-80
2021/09/10 12:52:09;;;;;;;;;;;;;;;21.97;29.60;98085.25;4905913;29;995;-80
2021/09/10 12:54:36;;;;;;;;;;;;;;;22.02;29.73;98079.00;4905815;29;878;-80
2021/09/10 12:57:02;;;;;;;;;;;;;;;22.20;29.31;98085.03;4906138;29;873;-80
2021/09/10 12:59:28;;;;;;;;;;;;;;;22.15;29.08;98088.41;4906669;29;640;-80